Time;durP1;ratioP1;P1;durP2;ratioP2;P2;SDS_P1;SDS_P2;PMS_P1;PMS_P2;Temp;Humidity;BMP_temperature;BMP_pressure;BME280_temperature;BME280_humidity;BME280_pressure;Samples;Min_cycle;Max_cycle;Signal;HPM_P1;HPM_P2
2023/01/15 00:01:56;;;;;;;0.40;0.40;;;8.90;99.90;;;;;;4187035;28;20230;-76
2023/01/15 00:03:59;;;;;;;0.40;0.40;;;8.90;99.90;;;;;;4193024;28;20283;-77
2023/01/15 00:06:02;;;;;;;0.43;0.40;;;9.00;99.90;;;;;;4191280;28;20275;-78
2023/01/15 00:08:05;;;;;;;4.33;0.50;;;9.00;99.90;;;;;;4193155;28;20213;-78
2023/01/15 00:10:08;;;;;;;0.67;0.30;;;9.00;99.90;;;;;;4193324;28;20292;-79
2023/01/15 00:12:10;;;;;;;0.50;0.40;;;9.00;99.90;;;;;;4207194;28;20236;-78
2023/01/15 00:14:14;;;;;;;0.63;0.40;;;9.00;99.90;;;;;;4188064;28;20252;-78
2023/01/15 00:16:18;;;;;;;0.40;0.40;;;9.00;99.90;;;;;;4205975;28;20204;-76
2023/01/15 00:18:20;;;;;;;0.80;0.40;;;9.00;99.90;;;;;;4189648;28;20191;-77
2023/01/15 00:20:22;;;;;;;0.30;0.30;;;9.00;99.90;;;;;;4191028;28;20318;-76
2023/01/15 00:22:24;;;;;;;1.37;0.40;;;9.00;99.90;;;;;;4191041;28;20226;-76
2023/01/15 00:29:05;;;;;;;1.33;0.30;;;8.90;99.90;;;;;;4190843;28;20298;-76
2023/01/15 00:31:08;;;;;;;1.67;0.40;;;9.00;99.90;;;;;;4189647;28;20284;-75
2023/01/15 00:33:10;;;;;;;0.50;0.40;;;9.00;99.90;;;;;;4191854;28;20584;-77
2023/01/15 00:35:14;;;;;;;0.77;0.30;;;9.00;99.90;;;;;;4192433;28;20198;-76
2023/01/15 00:37:16;;;;;;;0.50;0.30;;;9.00;99.90;;;;;;4189606;28;20739;-77
2023/01/15 00:39:18;;;;;;;0.40;0.40;;;9.00;99.90;;;;;;4193531;28;20234;-78
2023/01/15 00:41:20;;;;;;;0.70;0.40;;;9.00;99.90;;;;;;4190425;28;20199;-76
2023/01/15 00:43:22;;;;;;;0.50;0.30;;;8.90;99.90;;;;;;4206834;28;20251;-76
2023/01/15 00:45:24;;;;;;;0.40;0.40;;;8.90;99.90;;;;;;4195007;28;20294;-76
2023/01/15 00:47:28;;;;;;;0.40;0.40;;;8.90;99.90;;;;;;4195814;28;20636;-75
2023/01/15 00:49:30;;;;;;;0.70;0.30;;;8.90;99.90;;;;;;4196383;28;20819;-77
2023/01/15 00:51:32;;;;;;;1.27;0.40;;;8.90;99.90;;;;;;4198168;28;20229;-77
2023/01/15 00:53:34;;;;;;;1.97;0.50;;;8.90;99.90;;;;;;4198783;28;20194;-77
2023/01/15 00:55:36;;;;;;;0.30;0.30;;;8.80;99.90;;;;;;4198962;28;20198;-77
2023/01/15 00:57:38;;;;;;;1.17;0.50;;;8.90;99.90;;;;;;4195493;28;20229;-75
2023/01/15 00:59:40;;;;;;;0.47;0.30;;;8.90;99.90;;;;;;4195239;28;20252;-76
2023/01/15 01:01:42;;;;;;;0.40;0.40;;;8.90;99.90;;;;;;4195244;28;20225;-77
2023/01/15 01:03:47;;;;;;;0.47;0.40;;;8.90;99.90;;;;;;4196527;28;20648;-76
2023/01/15 01:05:50;;;;;;;0.53;0.30;;;8.90;99.90;;;;;;4194330;28;20252;-77
2023/01/15 01:07:52;;;;;;;1.17;0.50;;;8.90;99.90;;;;;;4197684;28;20203;-77
2023/01/15 01:09:54;;;;;;;0.40;0.37;;;8.90;99.90;;;;;;4194728;28;20205;-77
2023/01/15 01:11:56;;;;;;;0.40;0.33;;;9.00;99.90;;;;;;4191279;28;20276;-77
2023/01/15 01:13:59;;;;;;;0.40;0.40;;;9.00;99.90;;;;;;4196208;28;20203;-76
2023/01/15 01:16:05;;;;;;;0.40;0.40;;;9.00;99.90;;;;;;4194342;28;20290;-76
2023/01/15 01:18:07;;;;;;;0.40;0.30;;;9.00;99.90;;;;;;4196389;28;20251;-77
2023/01/15 01:20:13;;;;;;;2.00;0.50;;;9.10;99.90;;;;;;4196273;28;20211;-77
2023/01/15 01:22:15;;;;;;;1.17;0.50;;;9.10;99.90;;;;;;4196310;28;20790;-76
2023/01/15 01:24:19;;;;;;;1.40;0.40;;;9.10;99.90;;;;;;4196519;28;20206;-77
2023/01/15 01:26:21;;;;;;;0.93;0.30;;;9.00;99.90;;;;;;4196749;28;20237;-76
2023/01/15 01:28:23;;;;;;;0.57;0.40;;;9.00;99.90;;;;;;4196561;28;20293;-77
2023/01/15 01:30:25;;;;;;;0.40;0.40;;;9.10;99.90;;;;;;4194348;28;20210;-77
2023/01/15 01:32:27;;;;;;;0.73;0.40;;;9.10;99.90;;;;;;4195895;28;20720;-75
2023/01/15 01:34:29;;;;;;;0.70;0.30;;;9.10;99.90;;;;;;4195318;28;20216;-77
2023/01/15 01:36:34;;;;;;;0.20;0.20;;;9.20;99.90;;;;;;4194894;28;20244;-76
2023/01/15 01:38:36;;;;;;;0.57;0.30;;;9.10;99.90;;;;;;4194613;28;20210;-77
2023/01/15 01:40:40;;;;;;;1.80;0.50;;;9.10;99.90;;;;;;4194723;28;20300;-76
2023/01/15 01:42:42;;;;;;;0.20;0.20;;;9.10;99.90;;;;;;4194616;28;20237;-77
2023/01/15 01:45:07;;;;;;;0.60;0.40;;;9.10;99.90;;;;;;4195092;28;20249;-77
2023/01/15 01:47:14;;;;;;;0.40;0.40;;;9.20;99.90;;;;;;4194309;28;20211;-77
2023/01/15 01:49:16;;;;;;;0.87;0.40;;;9.20;99.90;;;;;;4192287;28;20214;-77
2023/01/15 01:51:20;;;;;;;1.40;0.40;;;9.30;99.90;;;;;;4194802;28;20207;-77
2023/01/15 01:53:29;;;;;;;0.60;0.47;;;9.30;99.90;;;;;;4192755;28;20314;-77
2023/01/15 01:55:33;;;;;;;0.93;0.43;;;9.30;99.90;;;;;;4192882;28;20575;-77
2023/01/15 01:57:36;;;;;;;0.47;0.40;;;9.30;99.90;;;;;;4193027;28;20209;-77
2023/01/15 01:59:39;;;;;;;0.47;0.30;;;9.30;99.90;;;;;;4194448;28;20309;-76
2023/01/15 02:01:41;;;;;;;2.93;0.70;;;9.30;99.90;;;;;;4194624;28;20265;-77
2023/01/15 02:03:43;;;;;;;0.40;0.40;;;9.30;99.90;;;;;;4194130;28;20238;-76
2023/01/15 02:05:50;;;;;;;1.13;0.30;;;9.30;99.90;;;;;;4192928;28;20709;-77
2023/01/15 02:07:52;;;;;;;0.97;0.30;;;9.30;99.90;;;;;;4197275;28;20272;-76
2023/01/15 02:09:55;;;;;;;0.67;0.40;;;9.30;99.90;;;;;;4194700;28;20207;-76
2023/01/15 02:12:02;;;;;;;0.57;0.33;;;9.30;99.90;;;;;;4194882;28;20279;-76
2023/01/15 02:14:11;;;;;;;0.40;0.40;;;9.40;99.90;;;;;;4193970;28;20231;-77
2023/01/15 02:16:17;;;;;;;0.50;0.40;;;9.40;99.90;;;;;;4192921;28;20299;-77
2023/01/15 02:18:24;;;;;;;1.80;0.57;;;9.40;99.90;;;;;;4192658;28;20207;-77
2023/01/15 02:20:32;;;;;;;1.23;0.40;;;9.40;99.90;;;;;;4193597;28;20201;-76
2023/01/15 02:22:44;;;;;;;0.50;0.40;;;9.40;99.90;;;;;;4194878;28;20980;-76
2023/01/15 02:25:00;;;;;;;0.83;0.43;;;9.40;99.90;;;;;;4193773;28;20685;-76
2023/01/15 02:27:08;;;;;;;2.63;0.47;;;9.40;99.90;;;;;;4193493;28;20317;-76
2023/01/15 02:29:13;;;;;;;0.87;0.50;;;9.40;99.90;;;;;;4192943;28;20270;-76
2023/01/15 02:31:19;;;;;;;2.43;0.50;;;9.40;99.90;;;;;;4194267;28;20574;-76
2023/01/15 02:33:27;;;;;;;0.87;0.50;;;9.40;99.90;;;;;;4194364;28;20579;-77
2023/01/15 02:35:34;;;;;;;0.73;0.30;;;9.50;99.90;;;;;;4192712;28;20234;-76
2023/01/15 02:37:41;;;;;;;1.67;0.50;;;9.50;99.90;;;;;;4189233;28;20246;-77
2023/01/15 02:39:47;;;;;;;0.80;0.40;;;9.50;99.90;;;;;;4192003;28;20312;-77
2023/01/15 02:41:51;;;;;;;0.40;0.37;;;9.40;99.90;;;;;;4191812;28;20226;-77
2023/01/15 02:43:57;;;;;;;0.30;0.30;;;9.40;99.90;;;;;;4193578;28;20308;-76
2023/01/15 02:46:02;;;;;;;1.00;0.40;;;9.50;99.90;;;;;;4193692;28;20231;-77
2023/01/15 02:48:08;;;;;;;0.60;0.57;;;9.50;99.90;;;;;;4190596;28;20231;-75
2023/01/15 02:50:14;;;;;;;0.73;0.30;;;9.50;99.90;;;;;;4193085;28;20246;-77
2023/01/15 02:52:22;;;;;;;0.30;0.30;;;9.70;99.90;;;;;;4193573;28;20230;-76
2023/01/15 02:54:27;;;;;;;0.23;0.23;;;9.50;99.90;;;;;;4193418;28;20267;-77
2023/01/15 02:56:34;;;;;;;0.40;0.30;;;9.50;99.90;;;;;;4194134;28;20301;-77
2023/01/15 02:58:39;;;;;;;1.43;0.50;;;9.50;99.90;;;;;;4193702;28;20938;-77
2023/01/15 03:00:47;;;;;;;0.90;0.50;;;9.50;99.90;;;;;;4193815;28;20306;-77
2023/01/15 03:03:01;;;;;;;0.73;0.40;;;9.50;99.90;;;;;;4193902;28;20234;-75
2023/01/15 03:05:08;;;;;;;0.60;0.40;;;9.40;99.90;;;;;;4192852;28;20282;-76
2023/01/15 03:07:16;;;;;;;0.40;0.30;;;9.40;99.90;;;;;;4194070;28;20703;-77
2023/01/15 03:09:21;;;;;;;2.70;0.40;;;9.30;99.90;;;;;;4193096;28;20252;-77
2023/01/15 03:11:23;;;;;;;2.30;0.40;;;9.30;99.90;;;;;;4210119;28;20649;-77
2023/01/15 03:13:31;;;;;;;1.37;0.40;;;9.30;99.90;;;;;;4193852;28;20202;-77
2023/01/15 03:18:06;;;;;;;1.07;0.30;;;9.20;99.90;;;;;;4193714;28;20212;-76
2023/01/15 03:20:15;;;;;;;0.97;0.53;;;9.10;99.90;;;;;;4193967;28;20209;-76
2023/01/15 03:22:23;;;;;;;0.60;0.40;;;9.10;99.90;;;;;;4210088;28;20224;-77
2023/01/15 03:24:32;;;;;;;0.43;0.40;;;9.10;99.90;;;;;;4208940;28;20287;-78
2023/01/15 03:26:34;;;;;;;0.43;0.33;;;9.10;99.90;;;;;;4194445;28;20209;-76
2023/01/15 03:28:38;;;;;;;1.53;0.50;;;9.10;99.90;;;;;;4193519;28;20475;-77
2023/01/15 03:30:40;;;;;;;0.37;0.37;;;9.10;99.90;;;;;;4193479;28;20217;-77
2023/01/15 03:32:42;;;;;;;1.77;0.50;;;9.10;99.90;;;;;;4194863;28;20229;-77
2023/01/15 03:34:49;;;;;;;0.40;0.40;;;9.10;99.90;;;;;;4191447;28;21386;-77
2023/01/15 03:36:51;;;;;;;1.80;0.40;;;9.10;99.90;;;;;;4193477;28;20286;-77
2023/01/15 03:38:53;;;;;;;0.60;0.37;;;9.10;99.90;;;;;;4194273;28;20206;-78
2023/01/15 03:41:05;;;;;;;0.40;0.40;;;9.10;99.90;;;;;;4193473;28;20217;-77
2023/01/15 03:45:38;;;;;;;0.60;0.40;;;9.10;99.90;;;;;;4178911;28;20448;-77
2023/01/15 03:47:48;;;;;;;0.67;0.50;;;9.00;99.90;;;;;;4189979;28;20206;-78
2023/01/15 03:50:00;;;;;;;1.43;0.60;;;9.10;99.90;;;;;;4206055;28;20205;-77
2023/01/15 03:52:11;;;;;;;1.70;0.60;;;9.10;99.90;;;;;;4193471;28;20304;-76
2023/01/15 03:54:21;;;;;;;2.90;0.60;;;9.10;99.90;;;;;;4191134;28;20255;-77
2023/01/15 03:56:31;;;;;;;1.37;0.70;;;9.10;99.90;;;;;;4193450;28;20201;-77
2023/01/15 03:58:41;;;;;;;0.73;0.63;;;9.10;99.90;;;;;;4191820;28;20309;-77
2023/01/15 04:00:47;;;;;;;1.80;0.60;;;9.10;99.90;;;;;;4193193;28;20229;-77
2023/01/15 04:02:52;;;;;;;2.10;0.50;;;9.10;99.90;;;;;;4194228;28;20658;-77
2023/01/15 04:04:57;;;;;;;0.67;0.47;;;9.20;99.90;;;;;;4191358;28;20248;-77
2023/01/15 04:07:01;;;;;;;1.53;0.70;;;9.20;99.90;;;;;;4192071;28;20241;-78
2023/01/15 04:09:06;;;;;;;0.60;0.40;;;9.20;99.90;;;;;;4192521;28;20546;-77
2023/01/15 04:11:08;;;;;;;0.43;0.40;;;9.20;99.90;;;;;;4191527;28;20210;-77
2023/01/15 04:13:12;;;;;;;1.17;0.30;;;9.20;99.90;;;;;;4192836;28;20298;-77
2023/01/15 04:15:18;;;;;;;10.70;1.00;;;9.20;99.90;;;;;;4192619;28;20295;-78
2023/01/15 04:17:19;;;;;;;8.07;0.90;;;9.20;99.90;;;;;;4192281;28;20207;-77
2023/01/15 04:19:21;;;;;;;0.60;0.40;;;9.10;99.90;;;;;;4193310;28;20671;-77
2023/01/15 04:21:25;;;;;;;0.37;0.30;;;9.00;99.90;;;;;;4196330;28;20206;-78
2023/01/15 04:23:27;;;;;;;1.70;0.40;;;9.00;99.90;;;;;;4196497;28;20256;-77
2023/01/15 04:25:32;;;;;;;0.50;0.40;;;9.00;99.90;;;;;;4194722;28;20216;-76
2023/01/15 04:27:34;;;;;;;0.40;0.30;;;8.90;99.90;;;;;;4196429;28;20229;-76
2023/01/15 04:29:36;;;;;;;1.77;0.20;;;8.90;99.90;;;;;;4196497;28;20205;-76
2023/01/15 04:31:38;;;;;;;0.33;0.33;;;8.80;99.90;;;;;;4196454;28;20288;-77
2023/01/15 04:33:40;;;;;;;0.80;0.30;;;8.80;99.90;;;;;;4210645;28;20236;-77
2023/01/15 04:35:43;;;;;;;0.53;0.30;;;8.80;99.90;;;;;;4195023;28;20460;-76
2023/01/15 04:37:46;;;;;;;0.43;0.27;;;8.70;99.90;;;;;;4194610;28;20471;-76
2023/01/15 04:39:48;;;;;;;0.30;0.30;;;8.70;99.90;;;;;;4194892;28;20263;-75
2023/01/15 04:44:05;;;;;;;0.30;0.30;;;8.70;99.90;;;;;;4172031;28;20296;-77
2023/01/15 04:46:07;;;;;;;1.27;1.00;;;8.70;99.90;;;;;;4209493;28;20478;-77
2023/01/15 04:48:09;;;;;;;1.73;1.37;;;8.60;99.90;;;;;;4190056;28;20319;-76
2023/01/15 04:50:11;;;;;;;2.93;1.50;;;8.50;99.90;;;;;;4195806;28;20260;-76
2023/01/15 04:52:14;;;;;;;1.60;1.17;;;8.30;99.90;;;;;;4209913;28;20479;-77
2023/01/15 04:54:18;;;;;;;5.07;1.37;;;8.10;99.90;;;;;;4194031;28;20567;-77
2023/01/15 04:56:20;;;;;;;3.40;1.30;;;8.00;99.90;;;;;;4196085;28;20436;-77
2023/01/15 04:58:22;;;;;;;2.23;1.23;;;7.90;99.90;;;;;;4194696;28;20550;-77
2023/01/15 05:00:24;;;;;;;1.50;1.07;;;7.80;99.90;;;;;;4194832;28;20460;-77
2023/01/15 05:02:26;;;;;;;2.93;1.07;;;7.70;99.90;;;;;;4195792;28;20539;-77
2023/01/15 05:04:28;;;;;;;1.43;0.80;;;7.60;99.90;;;;;;4195885;28;20447;-76
2023/01/15 05:06:31;;;;;;;1.00;0.90;;;7.50;99.90;;;;;;4196059;28;20581;-77
2023/01/15 05:08:35;;;;;;;2.70;0.80;;;7.40;99.90;;;;;;4194951;28;20546;-77
2023/01/15 05:10:41;;;;;;;1.43;0.80;;;7.20;99.90;;;;;;4188369;28;20463;-77
2023/01/15 05:12:42;;;;;;;2.10;0.97;;;7.10;99.90;;;;;;4196732;28;20474;-77
2023/01/15 05:14:44;;;;;;;2.90;1.10;;;7.10;99.90;;;;;;4195197;28;20471;-77
2023/01/15 05:16:46;;;;;;;3.40;1.10;;;7.00;99.90;;;;;;4195427;28;20489;-77
2023/01/15 05:18:48;;;;;;;1.37;1.17;;;6.90;99.90;;;;;;4195397;28;20455;-76
2023/01/15 05:20:53;;;;;;;3.07;1.37;;;6.80;99.90;;;;;;4195770;28;20501;-76
2023/01/15 05:22:55;;;;;;;1.70;1.10;;;6.70;99.90;;;;;;4195982;28;21003;-77
2023/01/15 05:24:57;;;;;;;4.40;1.20;;;6.60;99.90;;;;;;4194614;28;20463;-77
2023/01/15 05:27:01;;;;;;;2.67;1.27;;;6.50;99.90;;;;;;4194108;28;22360;-77
2023/01/15 05:29:03;;;;;;;2.03;1.30;;;6.40;99.90;;;;;;4195842;28;20545;-77
2023/01/15 05:31:09;;;;;;;1.97;1.50;;;6.40;99.90;;;;;;4210361;28;20540;-77
2023/01/15 05:33:11;;;;;;;3.83;1.47;;;6.40;99.90;;;;;;4195343;28;21042;-77
2023/01/15 05:35:13;;;;;;;5.17;1.73;;;6.30;99.90;;;;;;4195606;28;20549;-77
2023/01/15 05:37:15;;;;;;;3.80;1.93;;;6.30;99.90;;;;;;4194355;28;20557;-77
2023/01/15 05:39:17;;;;;;;3.00;1.73;;;6.20;99.90;;;;;;4197754;28;20455;-77
2023/01/15 05:43:41;;;;;;;3.00;1.80;;;6.20;99.90;;;;;;4198335;28;20521;-77
2023/01/15 05:45:43;;;;;;;3.10;1.87;;;6.20;99.90;;;;;;4196016;28;20557;-76
2023/01/15 05:47:45;;;;;;;2.10;1.40;;;6.20;99.90;;;;;;4192665;28;20584;-77
2023/01/15 05:49:49;;;;;;;2.27;1.50;;;6.10;99.90;;;;;;4195937;28;21126;-77
2023/01/15 05:51:52;;;;;;;1.90;1.30;;;6.10;99.90;;;;;;4195830;28;20475;-77
2023/01/15 05:53:54;;;;;;;1.70;1.17;;;6.10;99.90;;;;;;4194771;28;20967;-77
2023/01/15 05:55:56;;;;;;;1.70;1.20;;;6.10;99.90;;;;;;4196045;28;20501;-76
2023/01/15 05:57:58;;;;;;;2.17;1.00;;;6.00;99.90;;;;;;4195712;28;20447;-76
2023/01/15 06:00:02;;;;;;;1.90;1.10;;;6.00;99.90;;;;;;4196042;28;21147;-77
2023/01/15 06:02:04;;;;;;;1.30;1.20;;;6.00;99.90;;;;;;4193842;28;20478;-76
2023/01/15 06:04:07;;;;;;;1.83;1.13;;;6.00;99.90;;;;;;4194920;28;20481;-77
2023/01/15 06:06:13;;;;;;;1.90;1.10;;;5.90;99.90;;;;;;4195108;28;20468;-76
2023/01/15 06:08:18;;;;;;;1.87;1.00;;;5.90;99.90;;;;;;4194389;28;20485;-76
2023/01/15 06:10:20;;;;;;;2.20;0.80;;;5.90;99.90;;;;;;4210505;28;20457;-76
2023/01/15 06:12:22;;;;;;;1.00;0.80;;;5.80;99.90;;;;;;4194109;28;20481;-76
2023/01/15 06:14:24;;;;;;;0.70;0.70;;;5.80;99.90;;;;;;4195023;28;20470;-76
2023/01/15 06:16:30;;;;;;;1.90;1.30;;;5.80;99.90;;;;;;4197513;28;20499;-76
2023/01/15 06:18:34;;;;;;;5.73;1.33;;;5.70;99.90;;;;;;4194532;28;20904;-77
2023/01/15 06:20:36;;;;;;;2.60;1.10;;;5.80;99.90;;;;;;4193211;28;20462;-80
2023/01/15 06:22:38;;;;;;;1.67;1.10;;;5.70;99.90;;;;;;4210107;28;20481;-76
2023/01/15 06:24:40;;;;;;;2.70;0.93;;;5.70;99.90;;;;;;4193659;28;20637;-77
2023/01/15 06:26:42;;;;;;;3.03;1.07;;;5.70;99.90;;;;;;4193743;28;20497;-78
2023/01/15 06:28:45;;;;;;;3.10;1.00;;;5.60;99.90;;;;;;4209062;28;20978;-78
2023/01/15 06:30:47;;;;;;;2.63;0.97;;;5.60;99.90;;;;;;4194554;28;20446;-77
2023/01/15 06:32:50;;;;;;;1.03;0.70;;;5.60;99.90;;;;;;4195330;28;20481;-77
2023/01/15 06:34:52;;;;;;;3.33;0.83;;;5.60;99.90;;;;;;4211614;28;20461;-76
2023/01/15 06:36:54;;;;;;;2.50;0.70;;;5.50;99.90;;;;;;4195076;28;20814;-75
2023/01/15 06:38:56;;;;;;;2.33;0.57;;;5.50;99.90;;;;;;4183333;28;20478;-75
2023/01/15 06:40:59;;;;;;;1.20;0.60;;;5.50;99.90;;;;;;4195086;28;21355;-76
2023/01/15 06:47:42;;;;;;;3.00;1.37;;;5.40;99.90;;;;;;4159388;28;20914;-75
2023/01/15 06:49:45;;;;;;;1.37;0.60;;;5.30;99.90;;;;;;4194450;28;20829;-75
2023/01/15 06:51:47;;;;;;;1.10;0.60;;;5.30;99.90;;;;;;4194509;28;20560;-75
2023/01/15 06:53:49;;;;;;;3.13;0.77;;;5.30;99.90;;;;;;4193500;28;20488;-75
2023/01/15 06:55:51;;;;;;;3.73;0.70;;;5.30;99.90;;;;;;4194350;28;21043;-76
2023/01/15 06:57:53;;;;;;;2.57;0.73;;;5.30;99.90;;;;;;4189331;28;20455;-77
2023/01/15 06:59:55;;;;;;;1.43;0.50;;;5.30;99.90;;;;;;4193389;28;20456;-76
2023/01/15 07:01:57;;;;;;;2.67;0.70;;;5.20;99.90;;;;;;4194435;28;20469;-76
2023/01/15 07:03:59;;;;;;;0.97;0.60;;;5.20;99.90;;;;;;4208834;28;20981;-75
2023/01/15 07:06:06;;;;;;;1.30;1.13;;;5.20;99.90;;;;;;4193315;28;20457;-76
2023/01/15 07:08:08;;;;;;;1.63;0.60;;;5.20;99.90;;;;;;4193914;28;20503;-75
2023/01/15 07:10:11;;;;;;;2.00;0.50;;;5.10;99.90;;;;;;4195034;28;20441;-76
2023/01/15 07:12:13;;;;;;;0.53;0.40;;;5.10;99.90;;;;;;4193133;28;20483;-75
2023/01/15 07:14:16;;;;;;;5.17;2.23;;;5.00;99.90;;;;;;4185007;28;20487;-75
2023/01/15 07:16:27;;;;;;;10.87;1.80;;;5.10;99.90;;;;;;4209143;28;20447;-75
2023/01/15 07:18:30;;;;;;;2.40;0.43;;;5.00;99.90;;;;;;4193803;28;21000;-76
2023/01/15 07:20:32;;;;;;;3.33;0.60;;;4.90;99.90;;;;;;4195901;28;20524;-75
2023/01/15 07:22:39;;;;;;;0.87;0.40;;;4.90;99.90;;;;;;4190452;28;20990;-75
2023/01/15 07:24:40;;;;;;;0.97;0.30;;;4.80;99.90;;;;;;4193812;28;20454;-75
2023/01/15 07:26:44;;;;;;;1.53;0.40;;;4.80;99.90;;;;;;4196432;28;20473;-75
2023/01/15 07:28:46;;;;;;;0.40;0.30;;;4.70;99.90;;;;;;4194435;28;20899;-77
2023/01/15 07:30:48;;;;;;;0.40;0.40;;;4.70;99.90;;;;;;4195246;28;21001;-75
2023/01/15 07:32:50;;;;;;;0.40;0.40;;;4.70;99.90;;;;;;4193476;28;21031;-76
2023/01/15 07:34:52;;;;;;;0.23;0.23;;;4.60;99.90;;;;;;4185696;28;20540;-76
2023/01/15 07:36:54;;;;;;;0.20;0.20;;;4.60;99.90;;;;;;4191523;28;20448;-74
2023/01/15 07:38:57;;;;;;;0.27;0.27;;;4.50;99.90;;;;;;4193381;28;20521;-75
2023/01/15 07:50:20;;;;;;;0.87;0.73;;;4.50;99.90;;;;;;4188808;28;20506;-76
2023/01/15 07:52:23;;;;;;;1.83;0.73;;;4.60;99.90;;;;;;4187673;28;20470;-77
2023/01/15 07:54:26;;;;;;;0.77;0.70;;;4.50;99.90;;;;;;4182983;28;20555;-75
2023/01/15 07:56:28;;;;;;;1.43;0.77;;;4.50;99.90;;;;;;4190369;28;20493;-76
2023/01/15 07:58:30;;;;;;;1.03;0.80;;;4.50;99.90;;;;;;4188587;28;20480;-76
2023/01/15 08:00:32;;;;;;;0.80;0.70;;;4.60;99.90;;;;;;4187576;28;20475;-78
2023/01/15 08:02:34;;;;;;;0.80;0.60;;;4.60;99.90;;;;;;4192441;28;20467;-77
2023/01/15 08:04:36;;;;;;;0.93;0.70;;;4.60;99.90;;;;;;4194478;28;20484;-75
2023/01/15 08:06:38;;;;;;;3.70;0.80;;;4.60;99.90;;;;;;4190348;28;20958;-75
2023/01/15 08:08:40;;;;;;;1.30;0.57;;;4.60;99.90;;;;;;4192404;28;21045;-75
2023/01/15 08:15:11;;;;;;;2.87;1.17;;;4.60;99.90;;;;;;4192306;28;20961;-77
2023/01/15 08:15:30;;;;;;;4.13;1.80;;;4.60;99.90;;;;;;4190692;28;20791;-75
2023/01/15 08:17:34;;;;;;;4.00;1.70;;;4.60;99.90;;;;;;4209575;28;20988;-75
2023/01/15 08:19:36;;;;;;;1.90;1.13;;;4.60;99.90;;;;;;4193814;28;20459;-75
2023/01/15 08:21:38;;;;;;;1.20;0.80;;;4.60;99.90;;;;;;4194172;28;20486;-74
2023/01/15 08:23:42;;;;;;;0.73;0.60;;;4.60;99.90;;;;;;4194654;28;20868;-75
2023/01/15 08:25:45;;;;;;;0.40;0.40;;;4.60;99.90;;;;;;4194187;28;21169;-74
2023/01/15 08:27:47;;;;;;;0.30;0.30;;;4.60;99.90;;;;;;4185055;28;20484;-75
2023/01/15 08:29:49;;;;;;;0.73;0.30;;;4.60;99.90;;;;;;4193397;28;20463;-75
2023/01/15 08:31:51;;;;;;;0.20;0.20;;;4.60;99.90;;;;;;4189875;28;21006;-77
2023/01/15 08:33:53;;;;;;;1.27;0.43;;;4.50;99.90;;;;;;4193599;28;20464;-75
2023/01/15 08:35:57;;;;;;;3.20;0.40;;;4.60;99.90;;;;;;4190207;28;20921;-74
2023/01/15 08:38:05;;;;;;;5.00;0.60;;;4.50;99.90;;;;;;4192000;28;20456;-74
2023/01/15 08:40:08;;;;;;;2.10;0.60;;;4.50;99.90;;;;;;4191831;28;20451;-75
2023/01/15 08:42:11;;;;;;;1.97;0.90;;;4.50;99.90;;;;;;4188105;28;20476;-75
2023/01/15 08:44:15;;;;;;;3.20;1.23;;;4.50;99.90;;;;;;4190880;28;20492;-75
2023/01/15 08:46:17;;;;;;;3.70;1.63;;;4.50;99.90;;;;;;4187615;28;20514;-75
2023/01/15 08:48:19;;;;;;;4.70;1.87;;;4.50;99.90;;;;;;4181722;28;20590;-76
2023/01/15 08:50:21;;;;;;;2.73;0.93;;;4.50;99.90;;;;;;4189733;28;20463;-76
2023/01/15 08:52:26;;;;;;;1.13;0.90;;;4.50;99.90;;;;;;4191171;28;20519;-78
2023/01/15 08:54:28;;;;;;;1.20;0.50;;;4.50;99.90;;;;;;4188881;28;20498;-75
2023/01/15 08:56:30;;;;;;;0.50;0.40;;;4.50;99.90;;;;;;4189205;28;20518;-78
2023/01/15 08:58:34;;;;;;;0.20;0.20;;;4.50;99.90;;;;;;4206954;28;20452;-76
2023/01/15 09:00:36;;;;;;;0.60;0.33;;;4.50;99.90;;;;;;4191302;28;20457;-76
2023/01/15 09:02:38;;;;;;;1.83;0.90;;;4.50;99.90;;;;;;4189729;28;20505;-78
2023/01/15 09:04:40;;;;;;;0.80;0.30;;;4.60;99.90;;;;;;4191451;28;20514;-77
2023/01/15 09:06:42;;;;;;;0.57;0.40;;;4.60;99.90;;;;;;4194405;28;20448;-78
2023/01/15 09:08:44;;;;;;;1.53;0.40;;;4.90;99.90;;;;;;4193903;28;20912;-77
2023/01/15 09:10:46;;;;;;;0.30;0.30;;;4.60;99.90;;;;;;4195039;28;20462;-76
2023/01/15 09:12:49;;;;;;;0.47;0.30;;;4.60;99.90;;;;;;4195471;28;20472;-76
2023/01/15 09:14:52;;;;;;;1.43;0.40;;;4.60;99.90;;;;;;4193197;28;20452;-74
2023/01/15 09:16:59;;;;;;;1.87;0.60;;;4.70;99.90;;;;;;4194912;28;20506;-78
2023/01/15 09:19:02;;;;;;;0.20;0.20;;;5.00;99.90;;;;;;4194968;28;20537;-78
2023/01/15 09:21:05;;;;;;;0.60;0.40;;;4.70;99.90;;;;;;4195539;28;20945;-79
2023/01/15 09:23:07;;;;;;;1.20;0.23;;;4.70;99.90;;;;;;4195039;28;20472;-77
2023/01/15 09:25:09;;;;;;;0.37;0.30;;;4.70;99.90;;;;;;4181618;28;20454;-76
2023/01/15 09:27:12;;;;;;;0.30;0.30;;;4.70;99.90;;;;;;4195731;28;20453;-79
2023/01/15 09:29:14;;;;;;;0.67;0.40;;;4.70;99.90;;;;;;4195701;28;20480;-78
2023/01/15 09:31:17;;;;;;;0.20;0.20;;;4.70;99.90;;;;;;4210832;28;20464;-77
2023/01/15 09:33:19;;;;;;;0.77;0.40;;;4.70;99.90;;;;;;4212984;28;21170;-76
2023/01/15 09:35:22;;;;;;;0.50;0.40;;;5.30;99.90;;;;;;4195118;28;20448;-76
2023/01/15 09:37:24;;;;;;;0.47;0.30;;;4.80;99.90;;;;;;4196889;28;20460;-75
2023/01/15 09:39:26;;;;;;;0.97;0.30;;;4.90;99.90;;;;;;4194102;28;20456;-77
2023/01/15 09:44:09;;;;;;;0.60;0.50;;;4.90;99.90;;;;;;4188748;28;20436;-76
2023/01/15 09:46:15;;;;;;;0.93;0.60;;;4.90;99.90;;;;;;4188671;28;20443;-79
2023/01/15 09:48:33;;;;;;;1.37;0.87;;;4.90;99.90;;;;;;4191725;28;20500;-76
2023/01/15 09:50:52;;;;;;;0.73;0.70;;;4.90;99.90;;;;;;4193252;28;20517;-76
2023/01/15 09:53:14;;;;;;;1.20;0.43;;;4.90;99.90;;;;;;4194691;28;20494;-78
2023/01/15 09:55:20;;;;;;;0.83;0.50;;;4.90;99.90;;;;;;4209786;28;20487;-77
2023/01/15 09:57:29;;;;;;;3.27;0.70;;;5.00;99.90;;;;;;4195116;28;20464;-78
2023/01/15 09:59:35;;;;;;;1.10;0.83;;;5.10;99.90;;;;;;4192284;28;20497;-77
2023/01/15 10:01:39;;;;;;;2.63;0.57;;;5.00;99.90;;;;;;4193277;28;20496;-78
2023/01/15 10:03:46;;;;;;;1.13;0.50;;;5.10;99.90;;;;;;4197218;28;20543;-77
2023/01/15 10:05:56;;;;;;;0.53;0.50;;;5.10;99.90;;;;;;4197684;28;20442;-81
2023/01/15 10:08:06;;;;;;;0.97;0.50;;;5.10;99.90;;;;;;4199343;28;20460;-80
2023/01/15 10:10:13;;;;;;;1.63;0.60;;;5.10;99.90;;;;;;4196609;28;20482;-78
2023/01/15 10:14:45;;;;;;;1.13;0.53;;;5.10;99.90;;;;;;4193293;28;20540;-78
2023/01/15 10:16:47;;;;;;;2.53;0.70;;;5.20;99.90;;;;;;4195395;28;21011;-77
2023/01/15 10:18:51;;;;;;;0.70;0.50;;;5.20;99.90;;;;;;4196432;28;20511;-78
2023/01/15 10:21:11;;;;;;;0.57;0.43;;;5.20;99.90;;;;;;4188196;28;20463;-77
2023/01/15 10:23:33;;;;;;;2.13;0.30;;;5.20;99.90;;;;;;4193697;28;20966;-77
2023/01/15 10:25:53;;;;;;;0.97;0.40;;;5.20;99.90;;;;;;4191518;28;20450;-78
2023/01/15 10:28:03;;;;;;;1.57;0.57;;;5.30;99.90;;;;;;4190958;28;21525;-79
2023/01/15 10:30:15;;;;;;;3.10;0.80;;;5.30;99.90;;;;;;4194854;28;20464;-78
2023/01/15 10:32:28;;;;;;;3.27;0.70;;;5.30;99.90;;;;;;4196494;28;20469;-80
2023/01/15 10:34:59;;;;;;;0.40;0.40;;;5.30;99.90;;;;;;4193878;28;20537;-79
2023/01/15 10:37:08;;;;;;;2.20;0.50;;;5.30;99.90;;;;;;4196687;28;21115;-80
2023/01/15 10:39:18;;;;;;;1.63;0.40;;;5.30;99.90;;;;;;4196558;28;20454;-80
2023/01/15 10:41:43;;;;;;;2.20;0.50;;;5.30;99.90;;;;;;4192506;28;20453;-80
2023/01/15 10:43:51;;;;;;;3.47;0.70;;;5.30;99.90;;;;;;4194411;28;20462;-81
2023/01/15 10:45:57;;;;;;;1.23;0.57;;;5.30;99.90;;;;;;4195369;28;20486;-79
2023/01/15 10:48:04;;;;;;;0.40;0.40;;;5.30;99.90;;;;;;4187540;28;21003;-80
2023/01/15 10:50:17;;;;;;;3.03;0.50;;;5.30;99.90;;;;;;4198464;28;20453;-81
2023/01/15 10:52:26;;;;;;;1.87;1.00;;;5.40;99.90;;;;;;4195019;28;20905;-80
2023/01/15 10:54:35;;;;;;;2.20;0.70;;;5.40;99.90;;;;;;4197024;28;20446;-80
2023/01/15 10:56:43;;;;;;;2.17;0.70;;;5.40;99.90;;;;;;4193642;28;20446;-80
2023/01/15 10:58:50;;;;;;;2.70;0.60;;;5.50;99.90;;;;;;4192793;28;20452;-80
2023/01/15 11:00:57;;;;;;;0.77;0.63;;;5.50;99.90;;;;;;4189096;28;20568;-79
2023/01/15 11:03:03;;;;;;;0.70;0.40;;;5.50;99.90;;;;;;4191717;28;20497;-80
2023/01/15 11:05:06;;;;;;;1.43;0.50;;;5.60;99.90;;;;;;4184583;28;20470;-82
2023/01/15 11:07:12;;;;;;;1.57;0.60;;;5.60;99.90;;;;;;4187995;28;20543;-82
2023/01/15 11:09:21;;;;;;;3.20;0.47;;;5.70;99.90;;;;;;4205904;28;20535;-82
2023/01/15 11:21:12;;;;;;;1.80;0.80;;;5.80;99.90;;;;;;4193822;28;20447;-79
2023/01/15 11:23:18;;;;;;;1.53;0.50;;;5.90;99.90;;;;;;4190537;28;20570;-80
2023/01/15 11:25:29;;;;;;;2.90;0.73;;;5.90;99.90;;;;;;4193678;28;20503;-79
2023/01/15 11:27:32;;;;;;;3.03;0.83;;;5.90;99.90;;;;;;4194533;28;20494;-82
2023/01/15 11:29:37;;;;;;;3.47;0.77;;;5.90;99.90;;;;;;4193364;28;20486;-82
2023/01/15 11:31:40;;;;;;;5.33;1.93;;;6.00;99.90;;;;;;4212938;28;20458;-81
2023/01/15 11:33:45;;;;;;;1.50;0.83;;;6.00;99.90;;;;;;4197312;28;20455;-79
2023/01/15 11:35:56;;;;;;;3.43;1.20;;;6.00;99.90;;;;;;4212703;28;20466;-79
2023/01/15 11:38:12;;;;;;;3.57;1.33;;;6.00;99.90;;;;;;4197489;28;20463;-82
2023/01/15 11:40:18;;;;;;;3.50;1.10;;;6.10;99.90;;;;;;4189201;28;20482;-79
2023/01/15 11:51:49;;;;;;;3.87;1.40;;;6.10;99.90;;;;;;4194896;28;20978;-79
2023/01/15 11:53:55;;;;;;;1.60;0.63;;;6.10;99.90;;;;;;4194190;28;20511;-83